Campbellton, Missouri
Current Conditions -  °F | °C
As of 5:55 AM on Monday 22 Dec 2014 (Local Time) from KFYG Reporting Station
Light Rain Light Rain  
Wind Chill: 35°   Ceiling: 4100
Heat Index: 41°   Visibility: 5mi
Dew Point: 37°   Wind: 10mph
Humidity: 87%   Direction: 120°ESE
Pressure: 29.75"   Gusts: NA
Location:  38.5374°N, 91.0388°W
Report Text: KFYG 221155Z AUTO 12009KT 5SM -RA SCT030 BKN041 BKN050 05/03 A2975 RMK AO2
Loading
Personal Weather Stations






























Interactive Weather Map New forecast layout! Learn more

10-Day Weather Forecast

Advertisements
Track Severe Weather on mobile